createdAt,value
2019-05-20T00:00:34.686Z,99820.53
2019-05-20T00:02:22.939Z,99839.06
2019-05-20T00:03:46.780Z,99835.91
2019-05-20T00:05:21.416Z,99835.91
2019-05-20T00:06:56.641Z,99820.24
2019-05-20T00:08:32.257Z,99820.24
2019-05-20T00:10:07.636Z,99840.23
2019-05-20T00:11:42.305Z,99844.26
2019-05-20T00:13:17.617Z,99846.66
2019-05-20T00:14:52.269Z,99845.32
2019-05-20T00:16:27.487Z,99848.41
2019-05-20T00:18:02.147Z,99848.16
2019-05-20T00:19:37.336Z,99847.39
2019-05-20T00:21:11.992Z,99844.41
2019-05-20T00:22:47.203Z,99839.59
2019-05-20T00:24:21.830Z,99839.59
2019-05-20T00:25:58.024Z,99842.83
2019-05-20T00:27:32.696Z,99837.93
2019-05-20T00:29:07.928Z,99838.34
2019-05-20T00:30:42.629Z,99834.47
2019-05-20T00:32:18.027Z,99838.25
2019-05-20T00:33:52.734Z,99841.03
2019-05-20T00:35:27.924Z,99839.75
2019-05-20T00:37:03.721Z,99837.56
2019-05-20T00:38:38.977Z,99839.06
2019-05-20T00:40:13.718Z,99837.57
2019-05-20T00:41:49.173Z,99827.16
2019-05-20T00:43:23.878Z,99821.80
2019-05-20T00:44:59.085Z,99822.98
2019-05-20T00:46:33.743Z,99817.69
2019-05-20T00:48:09.012Z,99821.94
2019-05-20T00:49:43.656Z,99821.94
2019-05-20T00:51:18.893Z,99832.59
2019-05-20T00:52:53.594Z,99838.10
2019-05-20T00:54:28.871Z,99838.16
2019-05-20T00:56:03.638Z,99843.77
2019-05-20T00:57:38.857Z,99841.87
2019-05-20T00:59:13.789Z,99827.69
2019-05-20T01:00:48.996Z,99827.36
2019-05-20T01:02:23.643Z,99827.36
2019-05-20T01:03:58.844Z,99840.14
2019-05-20T01:05:33.502Z,99840.94
2019-05-20T01:07:08.869Z,99840.94
2019-05-20T01:08:43.518Z,99829.73
2019-05-20T01:10:18.782Z,99829.98
2019-05-20T01:11:54.420Z,99826.90
2019-05-20T01:13:29.882Z,99826.90
2019-05-20T01:15:05.040Z,99829.98
2019-05-20T01:16:40.305Z,99835.78
2019-05-20T01:18:14.930Z,99835.48
2019-05-20T01:19:50.212Z,99837.03
2019-05-20T01:21:24.875Z,99836.02
2019-05-20T01:23:00.058Z,99837.82
2019-05-20T01:24:34.726Z,99842.63
2019-05-20T01:26:10.064Z,99846.59
2019-05-20T01:27:44.731Z,99848.17
2019-05-20T01:29:19.964Z,99851.45
2019-05-20T01:30:54.615Z,99847.14
2019-05-20T01:32:29.947Z,99851.00
2019-05-20T01:34:04.653Z,99848.52
2019-05-20T01:35:39.855Z,99844.34
2019-05-20T01:37:14.705Z,99850.41
2019-05-20T01:38:49.939Z,99850.34
2019-05-20T01:40:24.613Z,99850.34
2019-05-20T01:41:59.835Z,99850.34
2019-05-20T01:43:34.590Z,99849.30
2019-05-20T01:45:10.080Z,99856.93
2019-05-20T01:46:44.819Z,99856.44
2019-05-20T01:48:20.051Z,99857.31
2019-05-20T01:49:54.729Z,99855.19
2019-05-20T01:51:29.925Z,99854.53
2019-05-20T01:53:04.599Z,99857.37
2019-05-20T01:54:39.809Z,99855.57
2019-05-20T01:56:14.456Z,99853.93
2019-05-20T01:57:49.711Z,99856.83
2019-05-20T01:59:24.399Z,99852.59
2019-05-20T02:00:59.609Z,99841.09
2019-05-20T02:02:34.281Z,99842.23
2019-05-20T02:04:09.535Z,99848.23
2019-05-20T02:05:44.202Z,99849.65
2019-05-20T02:07:19.427Z,99850.91
2019-05-20T02:08:54.235Z,99849.67
2019-05-20T02:10:29.547Z,99841.64
2019-05-20T02:12:04.343Z,99834.68
2019-05-20T02:13:54.507Z,99842.71
2019-05-20T02:15:34.763Z,99841.78
2019-05-20T02:17:09.485Z,99838.89
2019-05-20T02:18:44.741Z,99843.89
2019-05-20T02:20:19.427Z,99839.22
2019-05-20T02:21:54.690Z,99840.56
2019-05-20T02:23:29.354Z,99845.75
2019-05-20T02:25:04.754Z,99843.91
2019-05-20T02:26:39.409Z,99840.61
2019-05-20T02:28:14.687Z,99837.39
2019-05-20T02:29:50.322Z,99843.67
2019-05-20T02:31:25.557Z,99843.62
2019-05-20T02:33:00.262Z,99842.83
2019-05-20T02:34:35.497Z,99843.67
2019-05-20T02:36:10.181Z,99841.87
2019-05-20T02:37:45.380Z,99839.33
2019-05-20T02:39:21.185Z,99840.47
2019-05-20T02:40:56.423Z,99840.06
2019-05-20T02:42:31.154Z,99844.81
2019-05-20T02:44:06.442Z,99839.22
2019-05-20T02:45:41.176Z,99837.76
2019-05-20T02:47:16.458Z,99838.97
2019-05-20T02:48:51.143Z,99840.47
2019-05-20T02:50:26.416Z,99846.91
2019-05-20T02:52:01.089Z,99840.54
2019-05-20T02:53:36.292Z,99845.55
2019-05-20T02:55:11.408Z,99844.47
2019-05-20T02:56:46.678Z,99846.47
2019-05-20T02:58:21.422Z,99845.30
2019-05-20T02:59:56.647Z,99843.67
2019-05-20T03:01:31.347Z,99850.19
2019-05-20T03:03:06.590Z,99847.98
2019-05-20T03:04:41.256Z,99840.28
2019-05-20T03:06:16.465Z,99846.17
2019-05-20T03:07:51.146Z,99841.84
2019-05-20T03:09:26.341Z,99837.91
2019-05-20T03:11:01.060Z,99846.18
2019-05-20T03:12:36.336Z,99842.38
2019-05-20T03:14:10.990Z,99836.33
2019-05-20T03:15:46.233Z,99842.09
2019-05-20T03:17:21.003Z,99840.13
2019-05-20T03:18:56.216Z,99831.97
2019-05-20T03:20:30.967Z,99842.84
2019-05-20T03:22:06.517Z,99845.69
2019-05-20T03:23:41.176Z,99849.36
2019-05-20T03:25:16.678Z,99849.11
2019-05-20T03:26:51.402Z,99842.47
2019-05-20T03:28:26.616Z,99847.89
2019-05-20T03:30:01.672Z,99841.97
2019-05-20T03:31:37.192Z,99846.89
2019-05-20T03:33:11.875Z,99845.27
2019-05-20T03:34:58.114Z,99847.81
2019-05-20T03:36:23.450Z,99851.28
2019-05-20T03:37:58.663Z,99843.88
2019-05-20T03:39:33.724Z,99844.97
2019-05-20T03:41:09.059Z,99837.66
2019-05-20T03:42:43.804Z,99839.16
2019-05-20T03:44:19.096Z,99839.20
2019-05-20T03:45:53.760Z,99839.20
2019-05-20T03:47:28.974Z,99849.33
2019-05-20T03:49:03.965Z,99843.86
2019-05-20T03:50:39.185Z,99846.99
2019-05-20T03:52:13.918Z,99846.15
2019-05-20T03:53:49.126Z,99850.49
2019-05-20T03:55:23.897Z,99849.11
2019-05-20T03:56:59.117Z,99856.04
2019-05-20T03:58:33.950Z,99859.89
2019-05-20T04:00:10.367Z,99858.36
2019-05-20T04:01:45.056Z,99863.80
2019-05-20T04:03:20.266Z,99861.22
2019-05-20T04:05:02.051Z,99869.12
2019-05-20T04:06:31.918Z,99863.23
2019-05-20T04:08:07.670Z,99860.66
2019-05-20T04:09:42.861Z,99857.84
2019-05-20T04:11:17.510Z,99855.72
2019-05-20T04:12:52.759Z,99862.27
2019-05-20T04:14:27.424Z,99856.52
2019-05-20T04:16:02.661Z,99864.80
2019-05-20T04:17:37.379Z,99860.64
2019-05-20T04:19:12.609Z,99854.73
2019-05-20T04:20:47.238Z,99859.86
2019-05-20T04:22:22.443Z,99861.05
2019-05-20T04:24:01.003Z,99859.14
2019-05-20T04:25:34.166Z,99853.94
2019-05-20T04:27:08.827Z,99859.39
2019-05-20T04:28:44.013Z,99859.85
2019-05-20T04:30:19.243Z,99862.47
2019-05-20T04:31:54.556Z,99857.92
2019-05-20T04:33:29.258Z,99864.02
2019-05-20T04:35:20.810Z,99862.14
2019-05-20T04:36:40.882Z,99865.38
2019-05-20T04:38:16.124Z,99866.84
2019-05-20T04:39:50.867Z,99866.84
2019-05-20T04:41:26.317Z,99869.50
2019-05-20T04:43:01.025Z,99862.86
2019-05-20T04:44:36.221Z,99862.34
2019-05-20T04:46:10.878Z,99854.58
2019-05-20T04:47:46.112Z,99854.58
2019-05-20T04:49:20.762Z,99847.30
2019-05-20T04:50:55.949Z,99847.30
2019-05-20T04:52:31.676Z,99863.48
2019-05-20T04:54:07.869Z,99862.04
2019-05-20T04:55:42.589Z,99863.89
2019-05-20T04:57:17.957Z,99866.38
2019-05-20T04:58:52.609Z,99859.73
2019-05-20T05:00:56.230Z,99855.97
2019-05-20T05:02:31.601Z,99859.77
2019-05-20T05:04:06.295Z,99863.89
2019-05-20T05:05:41.569Z,99867.80
2019-05-20T05:07:16.272Z,99868.56
2019-05-20T05:08:51.585Z,99861.06
2019-05-20T05:10:26.227Z,99873.27
2019-05-20T05:12:01.521Z,99870.66
2019-05-20T05:13:36.287Z,99873.78
2019-05-20T05:15:11.975Z,99876.88
2019-05-20T05:16:46.690Z,99867.45
2019-05-20T05:18:22.106Z,99876.47
2019-05-20T05:19:56.742Z,99880.75
2019-05-20T05:21:32.016Z,99885.72
2019-05-20T05:23:06.751Z,99882.33
2019-05-20T05:24:42.096Z,99897.19
2019-05-20T05:26:16.834Z,99886.08
2019-05-20T05:27:52.050Z,99889.01
2019-05-20T05:29:26.854Z,99883.36
2019-05-20T05:31:02.319Z,99885.03
2019-05-20T05:32:44.127Z,99893.27
2019-05-20T05:34:20.478Z,99892.41
2019-05-20T05:35:55.221Z,99885.69
2019-05-20T05:37:30.456Z,99885.27
2019-05-20T05:39:06.756Z,99877.94
2019-05-20T05:40:41.988Z,99882.38
2019-05-20T05:42:16.639Z,99884.66
2019-05-20T05:43:51.862Z,99886.59
2019-05-20T05:45:33.402Z,99879.96
2019-05-20T05:47:08.602Z,99878.63
2019-05-20T05:48:44.421Z,99879.87
2019-05-20T05:50:19.822Z,99883.80
2019-05-20T05:51:54.506Z,99883.75
2019-05-20T05:53:30.026Z,99888.48
2019-05-20T05:55:05.002Z,99891.00
2019-05-20T05:56:49.032Z,99894.50
2019-05-20T05:58:23.686Z,99889.22
2019-05-20T05:59:58.943Z,99891.86
2019-05-20T06:01:47.730Z,99895.07
2019-05-20T06:03:24.017Z,99898.69
2019-05-20T06:04:58.677Z,99903.42
2019-05-20T06:06:33.897Z,99905.84
2019-05-20T06:08:08.550Z,99902.23
2019-05-20T06:09:43.753Z,99899.12
2019-05-20T06:11:18.407Z,99901.44
2019-05-20T06:12:53.651Z,99893.53
2019-05-20T06:14:28.299Z,99894.58
2019-05-20T06:16:03.648Z,99894.96
2019-05-20T06:17:38.381Z,99905.03
2019-05-20T06:19:13.687Z,99909.72
2019-05-20T06:20:48.381Z,99904.02
2019-05-20T06:22:23.630Z,99910.41
2019-05-20T06:23:58.353Z,99909.26
2019-05-20T06:25:33.639Z,99905.95
2019-05-20T06:27:08.471Z,99912.72
2019-05-20T06:28:43.692Z,99907.38
2019-05-20T06:30:18.849Z,99914.52
2019-05-20T06:31:54.064Z,99911.53
2019-05-20T06:33:28.841Z,99917.59
2019-05-20T06:35:04.558Z,99921.06
2019-05-20T06:36:43.409Z,99920.56
2019-05-20T06:38:36.216Z,99920.50
2019-05-20T06:40:11.147Z,99917.70
2019-05-20T06:41:46.379Z,99917.92
2019-05-20T06:43:21.042Z,99918.14
2019-05-20T06:44:57.456Z,99915.83
2019-05-20T06:46:32.484Z,99916.82
2019-05-20T06:48:07.690Z,99913.24
2019-05-20T06:49:42.411Z,99920.37
2019-05-20T06:51:17.621Z,99923.12
2019-05-20T06:52:52.310Z,99923.48
2019-05-20T06:54:27.628Z,99919.58
2019-05-20T06:56:02.293Z,99920.13
2019-05-20T06:57:37.539Z,99917.64
2019-05-20T06:59:12.203Z,99911.89
2019-05-20T07:00:47.381Z,99915.88
2019-05-20T07:02:22.308Z,99911.22
2019-05-20T07:03:57.733Z,99913.55
2019-05-20T07:05:32.470Z,99912.67
2019-05-20T07:07:20.497Z,99915.28
2019-05-20T07:08:44.069Z,99912.92
2019-05-20T07:10:19.312Z,99928.27
2019-05-20T07:11:53.957Z,99917.34
2019-05-20T07:13:29.424Z,99915.55
2019-05-20T07:15:04.783Z,99916.65
2019-05-20T07:16:41.639Z,99919.77
2019-05-20T07:18:16.280Z,99917.92
2019-05-20T07:19:51.764Z,99919.71
2019-05-20T07:21:26.425Z,99920.53
2019-05-20T07:23:01.645Z,99924.37
2019-05-20T07:24:36.462Z,99922.59
2019-05-20T07:26:11.730Z,99916.22
2019-05-20T07:27:46.520Z,99915.36
2019-05-20T07:29:21.729Z,99918.58
2019-05-20T07:30:56.502Z,99913.19
2019-05-20T07:32:31.713Z,99919.55
2019-05-20T07:34:06.346Z,99918.28
2019-05-20T07:35:41.615Z,99917.23
2019-05-20T07:37:17.430Z,99920.78
2019-05-20T07:38:52.637Z,99917.41
2019-05-20T07:40:31.695Z,99922.00
2019-05-20T07:42:06.917Z,99906.84
2019-05-20T07:43:41.550Z,99911.91
2019-05-20T07:45:18.052Z,99913.41
2019-05-20T07:46:52.831Z,99914.63
2019-05-20T07:48:28.499Z,99920.60
2019-05-20T07:50:04.076Z,99921.73
2019-05-20T07:51:39.781Z,99916.53
2019-05-20T07:53:14.490Z,99914.91
2019-05-20T07:54:50.093Z,99921.36
2019-05-20T07:56:28.115Z,99918.07
2019-05-20T07:58:06.806Z,99920.77
2019-05-20T07:59:42.037Z,99918.43
2019-05-20T08:01:17.295Z,99921.48
2019-05-20T08:02:52.055Z,99922.88
2019-05-20T08:04:27.293Z,99913.39
2019-05-20T08:06:02.050Z,99905.58
2019-05-20T08:07:51.319Z,99915.66
2019-05-20T08:09:14.643Z,99910.20
2019-05-20T08:10:49.933Z,99906.00
2019-05-20T08:12:24.667Z,99899.05
2019-05-20T08:13:59.954Z,99903.26
2019-05-20T08:15:34.736Z,99908.06
2019-05-20T08:17:10.017Z,99904.91
2019-05-20T08:18:44.773Z,99908.13
2019-05-20T08:20:21.790Z,99903.70
2019-05-20T08:21:56.447Z,99902.47
2019-05-20T08:23:31.668Z,99901.50
2019-05-20T08:25:06.710Z,99906.58
2019-05-20T08:26:41.949Z,99902.43
2019-05-20T08:28:16.628Z,99903.25
2019-05-20T08:29:52.890Z,99904.05
2019-05-20T08:31:27.573Z,99899.43
2019-05-20T08:33:03.176Z,99902.34
2019-05-20T08:34:39.255Z,99889.39
2019-05-20T08:36:14.806Z,99899.77
2019-05-20T08:37:49.430Z,99895.52
2019-05-20T08:39:25.590Z,99889.63
2019-05-20T08:41:00.239Z,99895.52
2019-05-20T08:42:35.566Z,99897.08
2019-05-20T08:44:10.213Z,99888.56
2019-05-20T08:45:45.415Z,99901.59
2019-05-20T08:47:20.074Z,99905.67
2019-05-20T08:48:55.298Z,99896.41
2019-05-20T08:50:30.032Z,99901.19
2019-05-20T08:52:05.396Z,99895.63
2019-05-20T08:53:40.104Z,99896.81
2019-05-20T08:55:15.985Z,99892.41
2019-05-20T08:56:50.832Z,99889.34
2019-05-20T08:58:26.055Z,99887.64
2019-05-20T09:00:00.719Z,99893.22
2019-05-20T09:01:35.958Z,99895.21
2019-05-20T09:03:10.703Z,99892.35
2019-05-20T09:04:45.932Z,99897.92
2019-05-20T09:06:21.100Z,99897.43
2019-05-20T09:08:03.187Z,99898.31
2019-05-20T09:09:32.960Z,99900.39
2019-05-20T09:11:08.386Z,99902.05
2019-05-20T09:12:43.113Z,99896.06
2019-05-20T09:14:18.363Z,99890.25
2019-05-20T09:15:53.006Z,99900.88
2019-05-20T09:17:28.222Z,99892.97
2019-05-20T09:19:03.944Z,99900.63
2019-05-20T09:20:39.185Z,99898.50
2019-05-20T09:22:13.833Z,99897.95
2019-05-20T09:23:49.062Z,99895.36
2019-05-20T09:25:30.827Z,99896.73
2019-05-20T09:27:06.513Z,99900.04
2019-05-20T09:28:41.162Z,99893.87
2019-05-20T09:30:16.726Z,99884.19
2019-05-20T09:31:51.530Z,99893.65
2019-05-20T09:33:26.929Z,99886.92
2019-05-20T09:35:02.148Z,99887.92
2019-05-20T09:36:37.508Z,99892.41
2019-05-20T09:38:20.334Z,99892.41
2019-05-20T09:39:49.298Z,99891.26
2019-05-20T09:41:23.966Z,99889.23
2019-05-20T09:42:59.298Z,99890.17
2019-05-20T09:44:34.053Z,99881.90
2019-05-20T09:46:09.321Z,99881.75
2019-05-20T09:47:43.951Z,99882.09
2019-05-20T09:49:19.157Z,99881.22
2019-05-20T09:50:53.924Z,99889.23
2019-05-20T09:52:29.111Z,99888.05
2019-05-20T09:54:04.056Z,99894.31
2019-05-20T09:55:39.271Z,99888.80
2019-05-20T09:57:14.981Z,99882.94
2019-05-20T09:58:50.197Z,99888.07
2019-05-20T10:00:24.984Z,99885.98
2019-05-20T10:02:00.247Z,99892.53
2019-05-20T10:03:34.865Z,99883.99
2019-05-20T10:05:10.123Z,99889.64
2019-05-20T10:06:44.810Z,99891.15
2019-05-20T10:08:36.163Z,99883.95
2019-05-20T10:09:56.412Z,99883.18
2019-05-20T10:11:31.617Z,99890.16
2019-05-20T10:13:08.284Z,99888.89
2019-05-20T10:14:43.843Z,99880.23
2019-05-20T10:16:18.602Z,99883.08
2019-05-20T10:17:53.903Z,99884.05
2019-05-20T10:19:28.640Z,99877.14
2019-05-20T10:21:03.853Z,99876.02
2019-05-20T10:22:38.476Z,99881.05
2019-05-20T10:24:13.703Z,99880.84
2019-05-20T10:25:48.346Z,99875.83
2019-05-20T10:27:23.548Z,99880.48
2019-05-20T10:28:58.265Z,99887.98
2019-05-20T10:30:34.589Z,99881.06
2019-05-20T10:32:09.214Z,99882.16
2019-05-20T10:33:45.404Z,99878.92
2019-05-20T10:35:20.211Z,99869.11
2019-05-20T10:36:55.373Z,99873.70
2019-05-20T10:38:30.026Z,99878.57
2019-05-20T10:40:05.710Z,99874.98
2019-05-20T10:41:40.343Z,99869.31
2019-05-20T10:43:15.646Z,99865.92
2019-05-20T10:44:50.293Z,99871.72
2019-05-20T10:46:25.486Z,99870.63
2019-05-20T10:48:00.143Z,99870.20
2019-05-20T10:49:35.324Z,99874.48
2019-05-20T10:51:10.526Z,99864.43
2019-05-20T10:52:46.015Z,99874.11
2019-05-20T10:54:20.660Z,99868.98
2019-05-20T10:55:55.927Z,99874.92
2019-05-20T10:57:30.640Z,99873.45
2019-05-20T10:59:05.931Z,99873.44
2019-05-20T11:01:00.243Z,99872.48
2019-05-20T11:02:18.627Z,99866.27
2019-05-20T11:03:53.311Z,99869.55
2019-05-20T11:05:28.554Z,99868.68
2019-05-20T11:07:03.437Z,99865.59
2019-05-20T11:08:38.642Z,99868.27
2019-05-20T11:10:13.342Z,99867.16
2019-05-20T11:11:48.864Z,99866.84
2019-05-20T11:13:23.513Z,99872.75
2019-05-20T11:14:58.706Z,99875.30
2019-05-20T11:16:33.474Z,99882.00
2019-05-20T11:18:08.756Z,99875.08
2019-05-20T11:19:43.449Z,99870.32
2019-05-20T11:21:18.660Z,99865.21
2019-05-20T11:22:53.312Z,99858.63
2019-05-20T11:24:28.503Z,99857.31
2019-05-20T11:26:03.137Z,99854.36
2019-05-20T11:27:38.434Z,99855.09
2019-05-20T11:29:13.082Z,99857.70
2019-05-20T11:30:48.355Z,99857.82
2019-05-20T11:32:23.123Z,99854.38
2019-05-20T11:33:59.380Z,99856.91
2019-05-20T11:35:34.097Z,99857.50
2019-05-20T11:37:09.326Z,99858.47
2019-05-20T11:38:43.949Z,99863.65
2019-05-20T11:40:19.515Z,99860.30
2019-05-20T11:41:54.704Z,99855.39
2019-05-20T11:43:29.996Z,99860.85
2019-05-20T11:45:06.641Z,99855.86
2019-05-20T11:46:41.842Z,99851.52
2019-05-20T11:48:16.546Z,99860.28
2019-05-20T11:49:51.805Z,99853.77
2019-05-20T11:51:26.424Z,99852.73
2019-05-20T11:53:02.899Z,99859.19
2019-05-20T11:54:37.557Z,99853.22
2019-05-20T11:56:12.763Z,99844.02
2019-05-20T11:57:47.439Z,99849.89
2019-05-20T11:59:22.661Z,99844.03
2019-05-20T12:00:57.307Z,99842.09
2019-05-20T12:02:32.612Z,99846.55
2019-05-20T12:04:07.327Z,99850.09
2019-05-20T12:05:42.597Z,99847.38
2019-05-20T12:07:17.242Z,99846.58
2019-05-20T12:08:52.461Z,99858.66
2019-05-20T12:10:27.092Z,99845.80
2019-05-20T12:12:02.313Z,99853.59
2019-05-20T12:13:38.024Z,99848.45
2019-05-20T12:15:13.476Z,99842.89
2019-05-20T12:16:48.173Z,99846.20
2019-05-20T12:18:23.371Z,99852.80
2019-05-20T12:19:58.052Z,99851.45
2019-05-20T12:21:33.366Z,99850.87
2019-05-20T12:23:08.004Z,99844.07
2019-05-20T12:24:43.202Z,99837.03
2019-05-20T12:26:22.454Z,99832.94
2019-05-20T12:27:55.731Z,99840.52
2019-05-20T12:29:30.382Z,99837.90
2019-05-20T12:31:05.683Z,99831.73
2019-05-20T12:32:40.314Z,99835.75
2019-05-20T12:34:15.549Z,99838.02
2019-05-20T12:35:50.371Z,99833.64
2019-05-20T12:37:25.573Z,99835.34
2019-05-20T12:39:01.193Z,99825.33
2019-05-20T12:40:37.918Z,99827.62
2019-05-20T12:42:12.650Z,99821.93
2019-05-20T12:44:08.985Z,99829.31
2019-05-20T12:45:24.320Z,99817.13
2019-05-20T12:46:59.541Z,99811.65
2019-05-20T12:48:34.168Z,99815.03
2019-05-20T12:50:09.913Z,99812.19
2019-05-20T12:51:44.586Z,99813.59
2019-05-20T12:53:19.855Z,99813.09
2019-05-20T12:55:07.242Z,99813.99
2019-05-20T12:56:31.809Z,99804.66
2019-05-20T12:58:07.607Z,99804.72
2019-05-20T12:59:42.840Z,99796.70
2019-05-20T13:01:17.487Z,99802.59
2019-05-20T13:02:52.704Z,99796.72
2019-05-20T13:04:27.419Z,99792.39
2019-05-20T13:06:02.642Z,99790.86
2019-05-20T13:07:38.076Z,99787.23
2019-05-20T13:09:13.261Z,99778.27
2019-05-20T13:10:47.916Z,99784.62
2019-05-20T13:12:23.126Z,99779.48
2019-05-20T13:13:57.854Z,99780.13
2019-05-20T13:15:33.172Z,99772.55
2019-05-20T13:17:07.823Z,99771.05
2019-05-20T13:18:55.465Z,99776.95
2019-05-20T13:20:21.375Z,99773.31
2019-05-20T13:21:56.791Z,99772.77
2019-05-20T13:23:31.430Z,99777.08
2019-05-20T13:25:06.762Z,99771.23
2019-05-20T13:26:41.404Z,99768.66
2019-05-20T13:28:16.586Z,99763.83
2019-05-20T13:29:51.234Z,99766.75
2019-05-20T13:31:26.581Z,99767.80
2019-05-20T13:33:01.200Z,99768.67
2019-05-20T13:34:36.595Z,99765.12
2019-05-20T13:36:11.241Z,99769.81
2019-05-20T13:37:46.448Z,99768.33
2019-05-20T13:39:21.062Z,99774.47
2019-05-20T13:40:56.273Z,99765.52
2019-05-20T13:42:31.630Z,99770.20
2019-05-20T13:44:06.987Z,99767.47
2019-05-20T13:45:41.608Z,99761.41
2019-05-20T13:47:16.809Z,99760.88
2019-05-20T13:48:51.544Z,99750.81
2019-05-20T13:50:26.856Z,99755.38
2019-05-20T13:52:01.591Z,99752.62
2019-05-20T13:53:37.200Z,99749.94
2019-05-20T13:55:12.050Z,99751.73
2019-05-20T13:56:47.317Z,99748.44
2019-05-20T13:58:22.022Z,99746.09
2019-05-20T13:59:57.288Z,99749.97
2019-05-20T14:01:31.934Z,99750.02
2019-05-20T14:03:07.128Z,99748.16
2019-05-20T14:04:41.760Z,99752.88
2019-05-20T14:06:16.958Z,99751.97
2019-05-20T14:07:51.660Z,99746.09
2019-05-20T14:09:26.951Z,99742.51
2019-05-20T14:11:04.690Z,99740.80
2019-05-20T14:12:38.535Z,99735.41
2019-05-20T14:14:14.481Z,99734.62
2019-05-20T14:15:49.673Z,99725.22
2019-05-20T14:17:24.343Z,99725.86
2019-05-20T14:18:59.552Z,99727.27
2019-05-20T14:20:34.266Z,99720.99
2019-05-20T14:22:09.654Z,99724.61
2019-05-20T14:23:44.295Z,99721.72
2019-05-20T14:25:19.595Z,99718.13
2019-05-20T14:26:55.641Z,99710.95
2019-05-20T14:28:30.911Z,99715.41
2019-05-20T14:30:11.913Z,99718.77
2019-05-20T14:31:47.178Z,99715.75
2019-05-20T14:33:21.998Z,99716.33
2019-05-20T14:34:57.181Z,99716.65
2019-05-20T14:36:40.320Z,99719.91
2019-05-20T14:38:08.801Z,99713.76
2019-05-20T14:39:43.652Z,99704.66
2019-05-20T14:41:21.950Z,99706.61
2019-05-20T14:42:55.288Z,99696.48
2019-05-20T14:44:30.467Z,99692.78
2019-05-20T14:46:05.227Z,99685.38
2019-05-20T14:47:40.501Z,99687.71
2019-05-20T14:49:15.152Z,99688.88
2019-05-20T14:50:50.339Z,99682.08
2019-05-20T14:52:24.968Z,99690.08
2019-05-20T14:54:00.172Z,99688.30
2019-05-20T14:55:42.189Z,99684.62
2019-05-20T14:57:11.819Z,99685.80
2019-05-20T14:58:46.447Z,99682.42
2019-05-20T15:00:21.979Z,99680.80
2019-05-20T15:01:56.612Z,99677.56
2019-05-20T15:03:31.819Z,99679.52
2019-05-20T15:05:07.037Z,99681.27
2019-05-20T15:06:42.391Z,99685.57
2019-05-20T15:08:17.120Z,99677.70
2019-05-20T15:09:52.537Z,99682.73
2019-05-20T15:11:37.704Z,99671.19
2019-05-20T15:13:04.253Z,99668.32
2019-05-20T15:14:42.331Z,99672.67
2019-05-20T15:16:15.857Z,99671.19
2019-05-20T15:17:50.517Z,99670.01
2019-05-20T15:19:25.772Z,99666.16
2019-05-20T15:21:00.425Z,99661.05
2019-05-20T15:22:35.705Z,99663.28
2019-05-20T15:24:10.365Z,99662.04
2019-05-20T15:25:45.852Z,99667.52
2019-05-20T15:27:20.682Z,99666.37
2019-05-20T15:28:55.889Z,99668.56
2019-05-20T15:30:30.714Z,99671.89
2019-05-20T15:32:05.991Z,99665.72
2019-05-20T15:33:40.835Z,99674.78
2019-05-20T15:35:16.167Z,99673.95
2019-05-20T15:36:50.940Z,99680.87
2019-05-20T15:38:26.107Z,99679.64
2019-05-20T15:40:00.760Z,99681.99
2019-05-20T15:41:36.430Z,99683.48
2019-05-20T15:43:11.107Z,99682.32
2019-05-20T15:44:46.348Z,99678.83
2019-05-20T15:46:21.083Z,99688.17
2019-05-20T15:47:56.674Z,99674.33
2019-05-20T15:49:33.848Z,99683.22
2019-05-20T15:51:12.529Z,99678.12
2019-05-20T15:52:50.125Z,99684.13
2019-05-20T15:54:27.345Z,99681.41
2019-05-20T15:56:03.975Z,99682.76
2019-05-20T15:57:42.184Z,99682.83
2019-05-20T15:59:20.103Z,99680.28
2019-05-20T16:00:58.471Z,99684.78
2019-05-20T16:02:36.332Z,99680.39
2019-05-20T16:04:16.449Z,99684.66
2019-05-20T16:05:59.433Z,99688.52
2019-05-20T16:07:35.105Z,99687.05
2019-05-20T16:09:17.093Z,99689.11
2019-05-20T16:10:53.170Z,99692.77
2019-05-20T16:12:33.730Z,99688.70
2019-05-20T16:14:10.541Z,99697.66
2019-05-20T16:15:49.763Z,99701.72
2019-05-20T16:17:28.057Z,99700.16
2019-05-20T16:19:05.419Z,99704.23
2019-05-20T16:20:43.093Z,99706.94
2019-05-20T16:22:18.971Z,99706.77
2019-05-20T16:23:54.157Z,99702.95
2019-05-20T16:25:28.935Z,99700.69
2019-05-20T16:27:04.104Z,99701.98
2019-05-20T16:28:38.729Z,99698.91
2019-05-20T16:30:14.483Z,99702.14
2019-05-20T16:31:49.235Z,99697.05
2019-05-20T16:33:24.427Z,99708.30
2019-05-20T16:34:59.117Z,99700.94
2019-05-20T16:36:34.310Z,99705.20
2019-05-20T16:38:09.034Z,99703.63
2019-05-20T16:39:44.217Z,99699.16
2019-05-20T16:41:18.862Z,99706.67
2019-05-20T16:42:55.037Z,99704.30
2019-05-20T16:44:29.713Z,99707.41
2019-05-20T16:46:04.992Z,99711.05
2019-05-20T16:47:39.700Z,99712.44
2019-05-20T16:49:15.174Z,99712.08
2019-05-20T16:50:49.819Z,99716.12
2019-05-20T16:52:25.015Z,99720.58
2019-05-20T16:53:59.732Z,99718.89
2019-05-20T16:55:36.551Z,99726.82
2019-05-20T16:57:11.263Z,99728.60
2019-05-20T16:58:46.586Z,99729.14
2019-05-20T17:00:31.444Z,99733.61
2019-05-20T17:01:58.212Z,99736.95
2019-05-20T17:03:32.930Z,99745.81
2019-05-20T17:05:08.192Z,99745.00
2019-05-20T17:06:43.005Z,99747.72
2019-05-20T17:08:18.176Z,99750.97
2019-05-20T17:09:52.811Z,99760.41
2019-05-20T17:11:27.991Z,99765.20
2019-05-20T17:13:02.717Z,99765.95
2019-05-20T17:14:37.927Z,99772.27
2019-05-20T17:16:12.591Z,99773.95
2019-05-20T17:17:47.764Z,99771.02
2019-05-20T17:19:22.419Z,99770.14
2019-05-20T17:20:57.599Z,99771.09
2019-05-20T17:22:32.228Z,99772.77
2019-05-20T17:24:07.523Z,99776.84
2019-05-20T17:25:42.286Z,99771.48
2019-05-20T17:27:17.468Z,99771.02
2019-05-20T17:28:53.195Z,99774.26
2019-05-20T17:30:28.441Z,99765.61
2019-05-20T17:32:03.050Z,99767.50
2019-05-20T17:33:38.324Z,99776.16
2019-05-20T17:35:13.150Z,99774.16
2019-05-20T17:36:48.479Z,99773.75
2019-05-20T17:38:23.176Z,99775.98
2019-05-20T17:39:58.433Z,99765.50
2019-05-20T17:41:33.176Z,99772.37
2019-05-20T17:43:09.670Z,99775.08
2019-05-20T17:44:44.337Z,99765.72
2019-05-20T17:46:19.702Z,99767.22
2019-05-20T17:47:54.334Z,99768.88
2019-05-20T17:49:29.534Z,99769.02
2019-05-20T17:51:04.171Z,99771.89
2019-05-20T17:52:39.690Z,99766.47
2019-05-20T17:54:14.333Z,99773.37
2019-05-20T17:55:49.726Z,99768.91
2019-05-20T17:57:24.384Z,99775.47
2019-05-20T17:58:59.584Z,99769.48
2019-05-20T18:00:34.296Z,99768.05
2019-05-20T18:02:10.941Z,99763.94
2019-05-20T18:03:45.869Z,99760.03
2019-05-20T18:05:21.243Z,99765.23
2019-05-20T18:06:55.893Z,99767.52
2019-05-20T18:08:32.497Z,99765.54
2019-05-20T18:10:07.798Z,99776.16
2019-05-20T18:11:43.026Z,99783.60
2019-05-20T18:13:17.643Z,99779.89
2019-05-20T18:14:55.049Z,99785.47
2019-05-20T18:16:29.674Z,99781.44
2019-05-20T18:18:04.865Z,99779.53
2019-05-20T18:19:39.488Z,99785.02
2019-05-20T18:21:24.431Z,99789.02
2019-05-20T18:22:59.745Z,99787.67
2019-05-20T18:24:34.343Z,99789.88
2019-05-20T18:26:09.519Z,99785.73
2019-05-20T18:27:44.199Z,99794.48
2019-05-20T18:29:19.477Z,99790.99
2019-05-20T18:30:54.104Z,99796.69
2019-05-20T18:32:29.304Z,99798.25
2019-05-20T18:34:05.008Z,99803.60
2019-05-20T18:35:40.196Z,99790.20
2019-05-20T18:37:14.809Z,99801.46
2019-05-20T18:38:51.023Z,99798.54
2019-05-20T18:40:25.656Z,99795.61